Overview Statistics Trail Chart Weather Telemetry Raw packets
 

This is the latest recevied weather packets stored in our database for station/object HB9MZI. If no packets are shown the sender has not sent any weather packets the latest 10 day(s).

<< 2 3 4 5 6 >>
Time Temp. Humidity Pressure Rain* Wind** Luminosity Snow
1787914947 24.44° C 100% 992.6 hPa 0 mm 0 m/s - -
1787912526 26.11° C 95% 991.9 hPa 0 mm 0 m/s - -
1787908292 24.44° C 100% 992.7 hPa 0 mm 0 m/s - -
1787907687 24.44° C 100% 992.6 hPa 0 mm 0 m/s - -
1787907383 23.89° C 100% 992.6 hPa 0 mm 0 m/s - -
1787906173 23.89° C 100% 992.8 hPa 0 mm 0 m/s - -
1787905267 23.89° C 100% 992.6 hPa 0 mm 0 m/s - -
1787904963 23.89° C 100% 992.4 hPa 0 mm 0 m/s - -
1787904358 23.33° C 100% 992.2 hPa 0 mm 0 m/s - -
1787903451 22.78° C 100% 991.9 hPa 0 mm 0 m/s - -
1787899821 22.22° C 100% 992.4 hPa 0 mm 0 m/s - -
1787898612 22.22° C 100% 993.2 hPa 0 mm 0 m/s - -
1787897100 21.67° C 100% 993.1 hPa 0 mm 0 m/s - -
1787896796 21.67° C 100% 993.3 hPa 0 mm 0 m/s - -
1787896494 21.67° C 100% 993.7 hPa 0 mm 0 m/s - -
1787896191 21.67° C 100% 993.6 hPa 0 mm 0 m/s - -
1787895586 21.67° C 100% 993.8 hPa 0 mm 0 m/s - -
1787895283 21.67° C 100% 993.6 hPa 0 mm 0 m/s - -
1787894679 21.67° C 100% 993.4 hPa 0 mm 0 m/s - -
1787893165 21.67° C 100% 993.2 hPa 0 mm 0 m/s - -
1787891653 21.67° C 100% 993 hPa 0 mm 0 m/s - -
1787777002 25° C 81% 994.1 hPa 0 mm 0 m/s - -
1787707730 20° C 97% 992.6 hPa 0 mm 0 m/s - -
1787706823 20° C 97% 992.4 hPa 0 mm 0 m/s - -
1787706520 20° C 97% 992.3 hPa 0 mm 0 m/s - -

* Rain latest hour (hover to see other rain measurements)
** Current wind speed in m/s (hover to see current wind gust speed)